createdAt,value
2023-09-27T00:00:28.703Z,15.91
2023-09-27T00:05:30.176Z,15.49
2023-09-27T00:10:31.629Z,15.55
2023-09-27T00:15:32.922Z,15.35
2023-09-27T00:20:34.188Z,15.43
2023-09-27T00:25:35.424Z,15.62
2023-09-27T00:30:36.712Z,15.16
2023-09-27T00:35:37.986Z,15.63
2023-09-27T00:40:39.208Z,15.66
2023-09-27T00:45:40.419Z,15.62
2023-09-27T00:50:41.731Z,15.67
2023-09-27T00:55:43.130Z,15.84
2023-09-27T01:00:44.394Z,15.65
2023-09-27T01:05:45.805Z,15.79
2023-09-27T01:10:47.156Z,15.32
2023-09-27T01:15:48.521Z,15.09
2023-09-27T01:20:49.762Z,15.52
2023-09-27T01:25:51.037Z,15.59
2023-09-27T01:30:52.322Z,15.45
2023-09-27T01:35:55.227Z,15.33
2023-09-27T01:40:56.621Z,15.34
2023-09-27T01:45:57.948Z,15.14
2023-09-27T01:50:59.264Z,14.68
2023-09-27T01:56:00.646Z,14.49
2023-09-27T02:01:01.974Z,15.03
2023-09-27T02:06:03.275Z,14.93
2023-09-27T02:11:04.704Z,15.17
2023-09-27T02:16:06.039Z,15.01
2023-09-27T02:21:07.612Z,15.00
2023-09-27T02:26:10.580Z,14.90
2023-09-27T02:31:11.993Z,14.45
2023-09-27T02:36:13.315Z,14.57
2023-09-27T02:41:14.832Z,14.51
2023-09-27T02:46:16.154Z,14.58
2023-09-27T02:51:17.434Z,14.50
2023-09-27T02:56:18.897Z,14.53
2023-09-27T03:01:20.262Z,14.47
2023-09-27T03:06:21.633Z,14.62
2023-09-27T03:11:22.984Z,14.52
2023-09-27T03:16:24.775Z,14.66
2023-09-27T03:21:27.624Z,14.28
2023-09-27T03:26:28.931Z,14.24
2023-09-27T03:31:31.403Z,13.79
2023-09-27T03:36:32.768Z,14.29
2023-09-27T03:41:34.049Z,14.31
2023-09-27T03:46:35.436Z,14.52
2023-09-27T03:51:36.768Z,14.34
2023-09-27T03:56:38.045Z,14.16
2023-09-27T04:01:39.334Z,14.32
2023-09-27T04:06:40.651Z,14.28
2023-09-27T04:11:42.006Z,14.10
2023-09-27T04:16:43.347Z,13.98
2023-09-27T04:21:44.672Z,13.96
2023-09-27T04:26:45.964Z,13.97
2023-09-27T04:31:47.271Z,14.18
2023-09-27T04:36:48.513Z,14.06
2023-09-27T04:41:49.852Z,13.95
2023-09-27T04:46:51.581Z,14.26
2023-09-27T04:51:52.981Z,14.57
2023-09-27T04:56:54.320Z,14.76
2023-09-27T05:01:55.700Z,14.53
2023-09-27T05:06:56.961Z,14.69
2023-09-27T05:11:58.194Z,14.41
2023-09-27T05:16:59.522Z,14.60
2023-09-27T05:22:00.829Z,14.87
2023-09-27T05:27:04.643Z,14.77
2023-09-27T05:32:06.011Z,14.54
2023-09-27T05:37:07.364Z,14.60
2023-09-27T05:42:08.626Z,14.74
2023-09-27T05:47:11.011Z,14.71
2023-09-27T05:52:13.753Z,14.63
2023-09-27T05:57:15.358Z,14.80
2023-09-27T06:02:21.344Z,14.46
2023-09-27T06:07:23.969Z,14.55
2023-09-27T06:12:26.362Z,15.37
2023-09-27T06:17:28.441Z,16.02
2023-09-27T06:22:29.915Z,16.34
2023-09-27T06:27:31.168Z,16.52
2023-09-27T06:32:32.675Z,16.74
2023-09-27T06:37:34.028Z,16.86
2023-09-27T06:42:35.293Z,16.96
2023-09-27T06:47:37.996Z,17.01
2023-09-27T06:52:41.159Z,16.67
2023-09-27T06:57:42.704Z,16.33
2023-09-27T07:02:45.340Z,16.76
2023-09-27T07:07:48.251Z,16.81
2023-09-27T07:12:49.541Z,16.33
2023-09-27T07:17:51.530Z,16.49
2023-09-27T07:22:53.041Z,16.52
2023-09-27T07:27:56.328Z,16.87
2023-09-27T07:32:58.179Z,16.62
2023-09-27T07:37:59.707Z,16.90
2023-09-27T07:43:00.932Z,17.11
2023-09-27T07:48:02.361Z,17.03
2023-09-27T07:53:05.024Z,16.84
2023-09-27T07:58:06.573Z,16.68
2023-09-27T08:03:09.228Z,16.34
2023-09-27T08:08:11.265Z,16.44
2023-09-27T08:13:12.652Z,16.47
2023-09-27T08:18:13.956Z,16.45
2023-09-27T08:23:15.359Z,16.54
2023-09-27T08:28:17.583Z,16.78
2023-09-27T08:33:18.940Z,16.74
2023-09-27T08:38:20.256Z,17.15
2023-09-27T08:43:22.970Z,17.40
2023-09-27T08:48:25.482Z,17.70
2023-09-27T08:53:26.904Z,17.40
2023-09-27T08:58:29.100Z,17.50
2023-09-27T09:03:31.447Z,17.41
2023-09-27T09:08:54.629Z,17.37
2023-09-27T09:13:54.348Z,17.67
2023-09-27T09:18:56.654Z,18.00
2023-09-27T09:23:58.313Z,17.43
2023-09-27T09:29:03.724Z,17.76
2023-09-27T09:34:05.588Z,18.03
2023-09-27T09:39:07.043Z,18.13
2023-09-27T09:44:08.392Z,18.48
2023-09-27T09:49:09.746Z,19.02
2023-09-27T09:54:10.991Z,19.15
2023-09-27T09:59:14.372Z,19.59
2023-09-27T10:04:16.759Z,19.82
2023-09-27T10:09:18.175Z,20.38
2023-09-27T10:14:19.892Z,20.91
2023-09-27T10:24:36.462Z,20.91
2023-09-27T10:29:37.795Z,21.21
2023-09-27T10:34:39.096Z,21.06
2023-09-27T10:39:41.202Z,21.50
2023-09-27T10:44:44.811Z,22.02
2023-09-27T10:49:46.240Z,22.18
2023-09-27T10:54:47.883Z,22.47
2023-09-27T10:59:51.720Z,22.43
2023-09-27T11:04:52.986Z,22.60
2023-09-27T11:09:55.129Z,22.67
2023-09-27T11:14:57.410Z,22.91
2023-09-27T11:19:58.857Z,23.41
2023-09-27T11:25:00.585Z,23.53
2023-09-27T11:30:01.876Z,23.63
2023-09-27T11:35:05.319Z,23.96
2023-09-27T11:40:07.185Z,24.25
2023-09-27T11:45:13.887Z,24.36
2023-09-27T11:50:15.151Z,24.79
2023-09-27T11:55:16.410Z,24.91
2023-09-27T12:00:17.785Z,24.95
2023-09-27T12:05:19.723Z,25.13
2023-09-27T12:10:21.150Z,25.10
2023-09-27T12:15:22.420Z,25.56
2023-09-27T12:20:38.520Z,25.83
2023-09-27T12:25:43.337Z,25.88
2023-09-27T12:30:44.732Z,25.45
2023-09-27T12:35:47.873Z,26.10
2023-09-27T12:40:49.270Z,25.84
2023-09-27T12:45:50.579Z,26.40
2023-09-27T12:50:51.882Z,26.81
2023-09-27T12:55:53.194Z,27.03
2023-09-27T13:00:54.476Z,26.49
2023-09-27T13:05:56.005Z,26.29
2023-09-27T13:10:57.414Z,26.40
2023-09-27T13:15:58.822Z,26.76
2023-09-27T13:21:00.537Z,27.75
2023-09-27T13:26:01.793Z,27.29
2023-09-27T13:31:03.650Z,27.73
2023-09-27T13:36:05.549Z,27.77
2023-09-27T13:41:07.410Z,27.24
2023-09-27T13:46:08.824Z,27.06
2023-09-27T13:51:10.223Z,27.65
2023-09-27T13:56:11.481Z,27.79
2023-09-27T14:01:12.795Z,28.05
2023-09-27T14:06:14.171Z,28.11
2023-09-27T14:11:15.538Z,27.82
2023-09-27T14:16:20.182Z,28.11
2023-09-27T14:21:21.595Z,27.87
2023-09-27T14:26:22.964Z,27.87
2023-09-27T14:31:29.123Z,27.58
2023-09-27T14:36:30.669Z,27.36
2023-09-27T14:41:33.152Z,27.49
2023-09-27T14:46:35.028Z,27.70
2023-09-27T14:51:36.419Z,27.40
2023-09-27T14:56:37.654Z,27.17
2023-09-27T15:01:39.569Z,26.93
2023-09-27T15:06:41.107Z,27.08
2023-09-27T15:11:43.352Z,27.00
2023-09-27T15:16:44.710Z,26.79
2023-09-27T15:21:48.311Z,26.91
2023-09-27T15:26:49.539Z,26.51
2023-09-27T15:31:50.902Z,26.16
2023-09-27T15:36:52.625Z,26.25
2023-09-27T15:41:54.638Z,25.90
2023-09-27T15:46:55.945Z,25.47
2023-09-27T15:51:57.546Z,25.44
2023-09-27T15:56:58.757Z,25.21
2023-09-27T16:01:59.991Z,25.23
2023-09-27T16:07:01.258Z,25.12
2023-09-27T16:12:02.950Z,25.07
2023-09-27T16:17:04.249Z,24.89
2023-09-27T16:22:05.490Z,24.61
2023-09-27T16:27:06.854Z,24.39
2023-09-27T16:32:08.154Z,24.05
2023-09-27T16:37:10.047Z,24.05
2023-09-27T16:42:11.325Z,23.87
2023-09-27T16:47:12.746Z,23.64
2023-09-27T16:52:15.423Z,23.37
2023-09-27T16:57:16.732Z,23.19
2023-09-27T17:02:18.162Z,22.89
2023-09-27T17:07:19.508Z,22.54
2023-09-27T17:12:20.750Z,21.62
2023-09-27T17:17:22.011Z,21.95
2023-09-27T17:22:23.407Z,21.71
2023-09-27T17:27:24.679Z,21.77
2023-09-27T17:32:26.018Z,21.53
2023-09-27T17:37:27.379Z,21.42
2023-09-27T17:42:28.676Z,21.24
2023-09-27T17:47:30.024Z,21.11
2023-09-27T17:52:31.306Z,21.05
2023-09-27T17:57:32.849Z,20.71
2023-09-27T18:02:34.757Z,20.65
2023-09-27T18:07:36.250Z,20.58
2023-09-27T18:12:37.483Z,20.38
2023-09-27T18:17:38.770Z,20.33
2023-09-27T18:22:40.152Z,20.24
2023-09-27T18:27:41.454Z,20.13
2023-09-27T18:32:42.756Z,19.68
2023-09-27T18:37:44.072Z,19.62
2023-09-27T18:42:45.284Z,19.46
2023-09-27T18:47:48.768Z,19.40
2023-09-27T18:52:51.777Z,19.44
2023-09-27T18:57:53.213Z,19.49
2023-09-27T19:02:54.454Z,18.92
2023-09-27T19:07:55.754Z,18.95
2023-09-27T19:12:57.012Z,19.19
2023-09-27T19:17:58.513Z,19.15
2023-09-27T19:22:59.932Z,19.03
2023-09-27T19:28:02.081Z,18.74
2023-09-27T19:33:03.724Z,18.53
2023-09-27T19:38:05.080Z,18.54
2023-09-27T19:43:06.398Z,18.39
2023-09-27T19:48:07.649Z,18.24
2023-09-27T19:53:08.975Z,18.20
2023-09-27T19:58:10.254Z,18.52
2023-09-27T20:03:12.027Z,18.45
2023-09-27T20:08:13.286Z,18.48
2023-09-27T20:13:14.578Z,18.31
2023-09-27T20:18:15.780Z,18.12
2023-09-27T20:23:17.785Z,18.10
2023-09-27T20:28:19.298Z,18.14
2023-09-27T20:33:20.539Z,18.15
2023-09-27T20:38:21.873Z,17.97
2023-09-27T20:43:23.176Z,17.49
2023-09-27T20:48:24.533Z,17.65
2023-09-27T20:53:25.750Z,17.83
2023-09-27T20:58:26.986Z,17.53
2023-09-27T21:03:28.427Z,17.24
2023-09-27T21:08:29.681Z,17.31
2023-09-27T21:13:30.942Z,17.67
2023-09-27T21:18:32.445Z,17.63
2023-09-27T21:23:35.295Z,17.35
2023-09-27T21:28:36.645Z,17.21
2023-09-27T21:33:37.935Z,17.04
2023-09-27T21:38:39.927Z,17.28
2023-09-27T21:43:41.407Z,17.10
2023-09-27T21:48:42.681Z,17.20
2023-09-27T21:53:43.964Z,17.18
2023-09-27T21:58:45.314Z,16.95
2023-09-27T22:03:46.568Z,16.72
2023-09-27T22:08:53.370Z,16.57
2023-09-27T22:13:55.540Z,16.59
2023-09-27T22:19:01.504Z,16.91
2023-09-27T22:24:13.092Z,16.92
2023-09-27T22:29:15.389Z,16.27
2023-09-27T22:34:26.063Z,16.62
2023-09-27T22:39:29.705Z,16.49
2023-09-27T22:44:33.865Z,16.34
2023-09-27T22:49:35.832Z,16.34
2023-09-27T22:54:39.433Z,16.30
2023-09-27T22:59:40.778Z,16.50
2023-09-27T23:04:42.359Z,16.52
2023-09-27T23:09:43.783Z,16.30
2023-09-27T23:15:03.938Z,16.24
2023-09-27T23:20:06.068Z,15.90
2023-09-27T23:25:26.180Z,15.71
2023-09-27T23:30:27.419Z,15.92
2023-09-27T23:35:31.162Z,15.95
2023-09-27T23:40:33.248Z,15.84
2023-09-27T23:45:37.521Z,15.27
2023-09-27T23:50:38.775Z,15.46
2023-09-27T23:55:43.579Z,15.42
